sensor_id;sensor_type;location;lat;lon;timestamp;P1;durP1;ratioP1;P2;durP2;ratioP2
2720;SDS011;1368;49.484;11.112;2024-03-29T00:00:40;5.23;;;3.43;;
2720;SDS011;1368;49.484;11.112;2024-03-29T00:03:06;4.17;;;3.10;;
2720;SDS011;1368;49.484;11.112;2024-03-29T00:05:33;6.53;;;3.80;;
2720;SDS011;1368;49.484;11.112;2024-03-29T00:07:59;5.40;;;3.53;;
2720;SDS011;1368;49.484;11.112;2024-03-29T00:10:24;6.20;;;3.60;;
2720;SDS011;1368;49.484;11.112;2024-03-29T00:12:50;6.90;;;3.50;;
2720;SDS011;1368;49.484;11.112;2024-03-29T00:15:15;6.27;;;2.90;;
2720;SDS011;1368;49.484;11.112;2024-03-29T00:17:41;5.70;;;3.60;;
2720;SDS011;1368;49.484;11.112;2024-03-29T00:20:07;5.10;;;3.67;;
2720;SDS011;1368;49.484;11.112;2024-03-29T00:22:33;7.00;;;3.77;;
2720;SDS011;1368;49.484;11.112;2024-03-29T00:24:59;5.50;;;3.43;;
2720;SDS011;1368;49.484;11.112;2024-03-29T00:27:24;5.53;;;3.20;;
2720;SDS011;1368;49.484;11.112;2024-03-29T00:29:51;8.40;;;3.20;;
2720;SDS011;1368;49.484;11.112;2024-03-29T00:32:18;6.73;;;2.90;;
2720;SDS011;1368;49.484;11.112;2024-03-29T00:34:44;3.70;;;2.67;;
2720;SDS011;1368;49.484;11.112;2024-03-29T00:37:10;7.13;;;3.70;;
2720;SDS011;1368;49.484;11.112;2024-03-29T00:39:36;4.83;;;3.10;;
2720;SDS011;1368;49.484;11.112;2024-03-29T00:42:02;5.70;;;3.10;;
2720;SDS011;1368;49.484;11.112;2024-03-29T00:44:29;5.13;;;3.07;;
2720;SDS011;1368;49.484;11.112;2024-03-29T00:46:55;3.93;;;2.90;;
2720;SDS011;1368;49.484;11.112;2024-03-29T00:49:20;6.80;;;3.50;;
2720;SDS011;1368;49.484;11.112;2024-03-29T00:51:46;6.17;;;2.90;;
2720;SDS011;1368;49.484;11.112;2024-03-29T00:54:11;6.13;;;3.20;;
2720;SDS011;1368;49.484;11.112;2024-03-29T00:56:37;5.97;;;2.83;;
2720;SDS011;1368;49.484;11.112;2024-03-29T00:59:02;3.73;;;2.50;;
2720;SDS011;1368;49.484;11.112;2024-03-29T01:01:28;4.20;;;2.93;;
2720;SDS011;1368;49.484;11.112;2024-03-29T01:03:53;5.70;;;2.57;;
2720;SDS011;1368;49.484;11.112;2024-03-29T01:06:19;4.10;;;2.70;;
2720;SDS011;1368;49.484;11.112;2024-03-29T01:08:45;4.50;;;2.67;;
2720;SDS011;1368;49.484;11.112;2024-03-29T01:11:10;4.73;;;2.50;;
2720;SDS011;1368;49.484;11.112;2024-03-29T01:13:36;4.43;;;2.70;;
2720;SDS011;1368;49.484;11.112;2024-03-29T01:16:01;4.03;;;2.47;;
2720;SDS011;1368;49.484;11.112;2024-03-29T01:18:27;2.73;;;1.63;;
2720;SDS011;1368;49.484;11.112;2024-03-29T01:20:52;5.00;;;2.20;;
2720;SDS011;1368;49.484;11.112;2024-03-29T01:23:18;3.97;;;2.10;;
2720;SDS011;1368;49.484;11.112;2024-03-29T01:25:43;3.10;;;1.80;;
2720;SDS011;1368;49.484;11.112;2024-03-29T01:28:09;4.70;;;2.30;;
2720;SDS011;1368;49.484;11.112;2024-03-29T01:30:34;4.97;;;2.17;;
2720;SDS011;1368;49.484;11.112;2024-03-29T01:33:00;3.20;;;2.27;;
2720;SDS011;1368;49.484;11.112;2024-03-29T01:35:25;5.90;;;2.47;;
2720;SDS011;1368;49.484;11.112;2024-03-29T01:37:51;6.47;;;2.40;;
2720;SDS011;1368;49.484;11.112;2024-03-29T01:40:16;3.60;;;1.80;;
2720;SDS011;1368;49.484;11.112;2024-03-29T01:42:42;2.80;;;1.80;;
2720;SDS011;1368;49.484;11.112;2024-03-29T01:45:08;4.40;;;2.57;;
2720;SDS011;1368;49.484;11.112;2024-03-29T01:47:34;3.23;;;1.73;;
2720;SDS011;1368;49.484;11.112;2024-03-29T01:50:00;3.13;;;1.80;;
2720;SDS011;1368;49.484;11.112;2024-03-29T01:52:27;6.20;;;2.30;;
2720;SDS011;1368;49.484;11.112;2024-03-29T01:54:53;5.17;;;2.70;;
2720;SDS011;1368;49.484;11.112;2024-03-29T01:57:19;3.17;;;1.87;;
2720;SDS011;1368;49.484;11.112;2024-03-29T01:59:45;4.23;;;2.10;;
2720;SDS011;1368;49.484;11.112;2024-03-29T02:02:11;6.20;;;1.70;;
2720;SDS011;1368;49.484;11.112;2024-03-29T02:04:38;3.57;;;1.90;;
2720;SDS011;1368;49.484;11.112;2024-03-29T02:07:03;3.10;;;1.63;;
2720;SDS011;1368;49.484;11.112;2024-03-29T02:09:30;8.57;;;1.80;;
2720;SDS011;1368;49.484;11.112;2024-03-29T02:11:56;2.70;;;2.07;;
2720;SDS011;1368;49.484;11.112;2024-03-29T02:14:21;3.03;;;1.70;;
2720;SDS011;1368;49.484;11.112;2024-03-29T02:16:47;3.60;;;2.00;;
2720;SDS011;1368;49.484;11.112;2024-03-29T02:19:12;3.50;;;2.07;;
2720;SDS011;1368;49.484;11.112;2024-03-29T02:21:40;4.67;;;2.43;;
2720;SDS011;1368;49.484;11.112;2024-03-29T02:24:08;3.83;;;1.77;;
2720;SDS011;1368;49.484;11.112;2024-03-29T02:26:34;6.10;;;1.80;;
2720;SDS011;1368;49.484;11.112;2024-03-29T02:29:06;2.93;;;1.60;;
2720;SDS011;1368;49.484;11.112;2024-03-29T02:31:32;3.30;;;1.53;;
2720;SDS011;1368;49.484;11.112;2024-03-29T02:33:58;1.93;;;1.20;;
2720;SDS011;1368;49.484;11.112;2024-03-29T02:36:23;3.80;;;1.53;;
2720;SDS011;1368;49.484;11.112;2024-03-29T02:38:49;2.90;;;1.60;;
2720;SDS011;1368;49.484;11.112;2024-03-29T02:41:15;5.33;;;1.57;;
2720;SDS011;1368;49.484;11.112;2024-03-29T02:43:40;4.43;;;1.63;;
2720;SDS011;1368;49.484;11.112;2024-03-29T02:46:06;2.03;;;1.40;;
2720;SDS011;1368;49.484;11.112;2024-03-29T02:48:31;2.57;;;1.70;;
2720;SDS011;1368;49.484;11.112;2024-03-29T02:50:57;5.30;;;1.73;;
2720;SDS011;1368;49.484;11.112;2024-03-29T02:53:22;3.20;;;1.57;;
2720;SDS011;1368;49.484;11.112;2024-03-29T02:55:48;5.33;;;1.90;;
2720;SDS011;1368;49.484;11.112;2024-03-29T02:58:14;2.07;;;1.40;;
2720;SDS011;1368;49.484;11.112;2024-03-29T03:00:40;2.13;;;1.27;;
2720;SDS011;1368;49.484;11.112;2024-03-29T03:03:05;4.30;;;1.50;;
2720;SDS011;1368;49.484;11.112;2024-03-29T03:05:31;2.80;;;1.60;;
2720;SDS011;1368;49.484;11.112;2024-03-29T03:07:57;6.93;;;2.00;;
2720;SDS011;1368;49.484;11.112;2024-03-29T03:10:47;3.73;;;1.60;;
2720;SDS011;1368;49.484;11.112;2024-03-29T03:13:28;2.13;;;1.20;;
2720;SDS011;1368;49.484;11.112;2024-03-29T03:15:54;3.53;;;1.60;;
2720;SDS011;1368;49.484;11.112;2024-03-29T03:18:20;2.60;;;1.50;;
2720;SDS011;1368;49.484;11.112;2024-03-29T03:20:55;3.63;;;1.70;;
2720;SDS011;1368;49.484;11.112;2024-03-29T03:23:22;2.47;;;1.30;;
2720;SDS011;1368;49.484;11.112;2024-03-29T03:25:55;2.53;;;1.10;;
2720;SDS011;1368;49.484;11.112;2024-03-29T03:28:22;2.53;;;1.40;;
2720;SDS011;1368;49.484;11.112;2024-03-29T03:30:48;3.87;;;1.73;;
2720;SDS011;1368;49.484;11.112;2024-03-29T03:33:18;3.70;;;1.53;;
2720;SDS011;1368;49.484;11.112;2024-03-29T03:35:44;4.40;;;1.50;;
2720;SDS011;1368;49.484;11.112;2024-03-29T03:38:10;1.80;;;1.30;;
2720;SDS011;1368;49.484;11.112;2024-03-29T03:40:36;2.60;;;1.37;;
2720;SDS011;1368;49.484;11.112;2024-03-29T03:43:02;3.20;;;1.40;;
2720;SDS011;1368;49.484;11.112;2024-03-29T03:45:28;2.73;;;1.40;;
2720;SDS011;1368;49.484;11.112;2024-03-29T03:47:53;3.40;;;1.40;;
2720;SDS011;1368;49.484;11.112;2024-03-29T03:50:19;4.77;;;2.07;;
2720;SDS011;1368;49.484;11.112;2024-03-29T03:52:45;3.03;;;1.70;;
2720;SDS011;1368;49.484;11.112;2024-03-29T03:55:10;3.60;;;1.73;;
2720;SDS011;1368;49.484;11.112;2024-03-29T03:57:36;5.67;;;1.90;;
2720;SDS011;1368;49.484;11.112;2024-03-29T04:00:03;5.07;;;1.70;;
2720;SDS011;1368;49.484;11.112;2024-03-29T04:02:29;2.63;;;1.07;;
2720;SDS011;1368;49.484;11.112;2024-03-29T04:04:54;2.67;;;1.33;;
2720;SDS011;1368;49.484;11.112;2024-03-29T04:07:20;2.47;;;1.30;;
2720;SDS011;1368;49.484;11.112;2024-03-29T04:09:45;2.77;;;1.40;;
2720;SDS011;1368;49.484;11.112;2024-03-29T04:12:15;2.00;;;1.17;;
2720;SDS011;1368;49.484;11.112;2024-03-29T04:14:40;2.67;;;1.47;;
2720;SDS011;1368;49.484;11.112;2024-03-29T04:17:06;8.40;;;1.43;;
2720;SDS011;1368;49.484;11.112;2024-03-29T04:19:31;2.23;;;1.33;;
2720;SDS011;1368;49.484;11.112;2024-03-29T04:21:57;2.30;;;1.40;;
2720;SDS011;1368;49.484;11.112;2024-03-29T04:24:22;2.93;;;1.40;;
2720;SDS011;1368;49.484;11.112;2024-03-29T04:26:48;5.80;;;1.60;;
2720;SDS011;1368;49.484;11.112;2024-03-29T04:29:13;2.10;;;1.13;;
2720;SDS011;1368;49.484;11.112;2024-03-29T04:31:39;3.77;;;1.37;;
2720;SDS011;1368;49.484;11.112;2024-03-29T04:34:05;4.50;;;1.30;;
2720;SDS011;1368;49.484;11.112;2024-03-29T04:36:30;2.70;;;1.00;;
2720;SDS011;1368;49.484;11.112;2024-03-29T04:38:56;4.37;;;1.10;;
2720;SDS011;1368;49.484;11.112;2024-03-29T04:41:22;2.33;;;1.10;;
2720;SDS011;1368;49.484;11.112;2024-03-29T04:43:47;3.70;;;1.33;;
2720;SDS011;1368;49.484;11.112;2024-03-29T04:46:13;4.10;;;1.10;;
2720;SDS011;1368;49.484;11.112;2024-03-29T04:48:40;2.70;;;1.30;;
2720;SDS011;1368;49.484;11.112;2024-03-29T04:51:06;4.43;;;1.47;;
2720;SDS011;1368;49.484;11.112;2024-03-29T04:53:32;2.60;;;1.33;;
2720;SDS011;1368;49.484;11.112;2024-03-29T04:56:00;6.40;;;1.80;;
2720;SDS011;1368;49.484;11.112;2024-03-29T04:58:25;3.47;;;1.37;;
2720;SDS011;1368;49.484;11.112;2024-03-29T05:00:51;3.47;;;1.30;;
2720;SDS011;1368;49.484;11.112;2024-03-29T05:03:17;6.57;;;1.13;;
2720;SDS011;1368;49.484;11.112;2024-03-29T05:05:44;3.40;;;1.43;;
2720;SDS011;1368;49.484;11.112;2024-03-29T05:08:13;3.30;;;1.30;;
2720;SDS011;1368;49.484;11.112;2024-03-29T05:10:39;1.90;;;1.30;;
2720;SDS011;1368;49.484;11.112;2024-03-29T05:13:05;3.10;;;1.30;;
2720;SDS011;1368;49.484;11.112;2024-03-29T05:15:31;3.20;;;1.40;;
2720;SDS011;1368;49.484;11.112;2024-03-29T05:17:57;1.77;;;1.07;;
2720;SDS011;1368;49.484;11.112;2024-03-29T05:20:22;3.17;;;1.50;;
2720;SDS011;1368;49.484;11.112;2024-03-29T05:22:48;3.17;;;1.57;;
2720;SDS011;1368;49.484;11.112;2024-03-29T05:25:14;5.90;;;1.50;;
2720;SDS011;1368;49.484;11.112;2024-03-29T05:27:39;3.87;;;1.17;;
2720;SDS011;1368;49.484;11.112;2024-03-29T05:30:05;5.80;;;1.30;;
2720;SDS011;1368;49.484;11.112;2024-03-29T05:32:31;4.60;;;1.33;;
2720;SDS011;1368;49.484;11.112;2024-03-29T05:34:57;2.47;;;1.30;;
2720;SDS011;1368;49.484;11.112;2024-03-29T05:37:23;5.97;;;1.57;;
2720;SDS011;1368;49.484;11.112;2024-03-29T05:39:50;2.90;;;1.70;;
2720;SDS011;1368;49.484;11.112;2024-03-29T05:42:26;2.17;;;1.17;;
2720;SDS011;1368;49.484;11.112;2024-03-29T05:44:52;1.80;;;1.10;;
2720;SDS011;1368;49.484;11.112;2024-03-29T05:47:18;1.97;;;1.33;;
2720;SDS011;1368;49.484;11.112;2024-03-29T05:49:44;2.83;;;1.20;;
2720;SDS011;1368;49.484;11.112;2024-03-29T05:52:10;2.40;;;1.60;;
2720;SDS011;1368;49.484;11.112;2024-03-29T05:54:38;1.97;;;1.17;;
2720;SDS011;1368;49.484;11.112;2024-03-29T05:57:10;2.77;;;1.30;;
2720;SDS011;1368;49.484;11.112;2024-03-29T05:59:36;2.03;;;1.13;;
2720;SDS011;1368;49.484;11.112;2024-03-29T06:02:02;2.40;;;1.40;;
2720;SDS011;1368;49.484;11.112;2024-03-29T06:04:28;2.47;;;1.37;;
2720;SDS011;1368;49.484;11.112;2024-03-29T06:07:03;5.13;;;1.40;;
2720;SDS011;1368;49.484;11.112;2024-03-29T06:09:29;3.30;;;1.20;;
2720;SDS011;1368;49.484;11.112;2024-03-29T06:11:55;2.97;;;1.90;;
2720;SDS011;1368;49.484;11.112;2024-03-29T06:14:24;2.20;;;1.63;;
2720;SDS011;1368;49.484;11.112;2024-03-29T06:17:09;1.70;;;1.10;;
2720;SDS011;1368;49.484;11.112;2024-03-29T06:22:17;2.40;;;1.60;;
2720;SDS011;1368;49.484;11.112;2024-03-29T06:24:43;1.90;;;1.10;;
2720;SDS011;1368;49.484;11.112;2024-03-29T06:27:09;2.07;;;1.33;;
2720;SDS011;1368;49.484;11.112;2024-03-29T06:29:35;2.20;;;1.40;;
2720;SDS011;1368;49.484;11.112;2024-03-29T06:32:00;2.70;;;1.40;;
2720;SDS011;1368;49.484;11.112;2024-03-29T06:34:28;3.07;;;1.30;;
2720;SDS011;1368;49.484;11.112;2024-03-29T06:36:55;3.07;;;1.50;;
2720;SDS011;1368;49.484;11.112;2024-03-29T06:39:21;2.80;;;1.53;;
2720;SDS011;1368;49.484;11.112;2024-03-29T06:41:46;2.20;;;1.20;;
2720;SDS011;1368;49.484;11.112;2024-03-29T06:44:12;1.90;;;1.10;;
2720;SDS011;1368;49.484;11.112;2024-03-29T06:46:38;1.87;;;1.10;;
2720;SDS011;1368;49.484;11.112;2024-03-29T06:49:03;2.03;;;1.27;;
2720;SDS011;1368;49.484;11.112;2024-03-29T06:51:29;2.60;;;1.47;;
2720;SDS011;1368;49.484;11.112;2024-03-29T06:53:55;2.73;;;1.53;;
2720;SDS011;1368;49.484;11.112;2024-03-29T06:56:20;2.70;;;1.33;;
2720;SDS011;1368;49.484;11.112;2024-03-29T06:58:46;1.97;;;1.00;;
2720;SDS011;1368;49.484;11.112;2024-03-29T07:01:11;1.90;;;0.90;;
2720;SDS011;1368;49.484;11.112;2024-03-29T07:03:37;2.00;;;0.90;;
2720;SDS011;1368;49.484;11.112;2024-03-29T07:06:03;2.10;;;1.30;;
2720;SDS011;1368;49.484;11.112;2024-03-29T07:08:29;2.03;;;1.03;;
2720;SDS011;1368;49.484;11.112;2024-03-29T07:11:01;1.83;;;1.20;;
2720;SDS011;1368;49.484;11.112;2024-03-29T07:13:29;1.90;;;1.03;;
2720;SDS011;1368;49.484;11.112;2024-03-29T07:15:56;1.80;;;1.00;;
2720;SDS011;1368;49.484;11.112;2024-03-29T07:18:25;3.50;;;1.10;;
2720;SDS011;1368;49.484;11.112;2024-03-29T07:20:50;1.90;;;1.07;;
2720;SDS011;1368;49.484;11.112;2024-03-29T07:23:16;2.57;;;1.40;;
2720;SDS011;1368;49.484;11.112;2024-03-29T07:25:45;2.13;;;1.13;;
2720;SDS011;1368;49.484;11.112;2024-03-29T07:28:21;2.40;;;1.27;;
2720;SDS011;1368;49.484;11.112;2024-03-29T07:30:47;2.27;;;1.10;;
2720;SDS011;1368;49.484;11.112;2024-03-29T07:33:12;2.03;;;0.93;;
2720;SDS011;1368;49.484;11.112;2024-03-29T07:35:40;1.83;;;0.87;;
2720;SDS011;1368;49.484;11.112;2024-03-29T07:38:06;2.30;;;1.37;;
2720;SDS011;1368;49.484;11.112;2024-03-29T07:40:32;5.13;;;1.43;;
2720;SDS011;1368;49.484;11.112;2024-03-29T07:42:57;2.00;;;1.13;;
2720;SDS011;1368;49.484;11.112;2024-03-29T07:45:24;2.97;;;1.00;;
2720;SDS011;1368;49.484;11.112;2024-03-29T07:47:50;2.83;;;1.20;;
2720;SDS011;1368;49.484;11.112;2024-03-29T07:50:17;3.00;;;1.40;;
2720;SDS011;1368;49.484;11.112;2024-03-29T07:52:46;2.23;;;1.00;;
2720;SDS011;1368;49.484;11.112;2024-03-29T07:55:12;3.60;;;0.73;;
2720;SDS011;1368;49.484;11.112;2024-03-29T07:57:38;2.03;;;0.80;;
2720;SDS011;1368;49.484;11.112;2024-03-29T08:00:04;2.17;;;1.03;;
2720;SDS011;1368;49.484;11.112;2024-03-29T08:02:31;2.67;;;1.40;;
2720;SDS011;1368;49.484;11.112;2024-03-29T08:04:57;2.27;;;1.10;;
2720;SDS011;1368;49.484;11.112;2024-03-29T08:07:22;1.77;;;0.83;;
2720;SDS011;1368;49.484;11.112;2024-03-29T08:09:49;2.23;;;1.10;;
2720;SDS011;1368;49.484;11.112;2024-03-29T08:12:15;2.40;;;0.83;;
2720;SDS011;1368;49.484;11.112;2024-03-29T08:14:41;2.67;;;0.80;;
2720;SDS011;1368;49.484;11.112;2024-03-29T08:17:07;2.53;;;1.20;;
2720;SDS011;1368;49.484;11.112;2024-03-29T08:19:35;2.90;;;1.33;;
2720;SDS011;1368;49.484;11.112;2024-03-29T08:22:00;2.30;;;1.00;;
2720;SDS011;1368;49.484;11.112;2024-03-29T08:24:26;1.90;;;1.03;;
2720;SDS011;1368;49.484;11.112;2024-03-29T08:26:55;2.27;;;1.00;;
2720;SDS011;1368;49.484;11.112;2024-03-29T08:29:23;2.10;;;1.00;;
2720;SDS011;1368;49.484;11.112;2024-03-29T08:31:49;2.30;;;0.87;;
2720;SDS011;1368;49.484;11.112;2024-03-29T08:34:14;2.30;;;1.03;;
2720;SDS011;1368;49.484;11.112;2024-03-29T08:36:40;2.03;;;0.90;;
2720;SDS011;1368;49.484;11.112;2024-03-29T08:39:06;1.70;;;0.70;;
2720;SDS011;1368;49.484;11.112;2024-03-29T08:41:31;2.90;;;1.23;;
2720;SDS011;1368;49.484;11.112;2024-03-29T08:43:57;1.77;;;0.83;;
2720;SDS011;1368;49.484;11.112;2024-03-29T08:46:22;2.53;;;1.00;;
2720;SDS011;1368;49.484;11.112;2024-03-29T08:48:48;2.10;;;1.00;;
2720;SDS011;1368;49.484;11.112;2024-03-29T08:51:14;2.57;;;1.10;;
2720;SDS011;1368;49.484;11.112;2024-03-29T08:53:40;2.27;;;1.00;;
2720;SDS011;1368;49.484;11.112;2024-03-29T08:56:06;2.53;;;1.13;;
2720;SDS011;1368;49.484;11.112;2024-03-29T08:58:31;1.90;;;1.00;;
2720;SDS011;1368;49.484;11.112;2024-03-29T09:00:57;1.70;;;0.87;;
2720;SDS011;1368;49.484;11.112;2024-03-29T09:03:23;1.93;;;1.00;;
2720;SDS011;1368;49.484;11.112;2024-03-29T09:05:50;4.23;;;2.00;;
2720;SDS011;1368;49.484;11.112;2024-03-29T09:08:18;6.17;;;2.50;;
2720;SDS011;1368;49.484;11.112;2024-03-29T09:10:44;6.03;;;2.70;;
2720;SDS011;1368;49.484;11.112;2024-03-29T09:13:10;2.20;;;1.30;;
2720;SDS011;1368;49.484;11.112;2024-03-29T09:15:36;4.13;;;1.47;;
2720;SDS011;1368;49.484;11.112;2024-03-29T09:18:02;5.07;;;1.33;;
2720;SDS011;1368;49.484;11.112;2024-03-29T09:20:35;2.80;;;1.30;;
2720;SDS011;1368;49.484;11.112;2024-03-29T09:23:01;4.80;;;2.03;;
2720;SDS011;1368;49.484;11.112;2024-03-29T09:25:26;5.10;;;2.07;;
2720;SDS011;1368;49.484;11.112;2024-03-29T09:27:52;3.70;;;1.60;;
2720;SDS011;1368;49.484;11.112;2024-03-29T09:30:17;5.70;;;1.37;;
2720;SDS011;1368;49.484;11.112;2024-03-29T09:32:44;3.40;;;1.77;;
2720;SDS011;1368;49.484;11.112;2024-03-29T09:35:10;2.80;;;1.50;;
2720;SDS011;1368;49.484;11.112;2024-03-29T09:37:36;3.10;;;1.77;;
2720;SDS011;1368;49.484;11.112;2024-03-29T09:40:03;1.93;;;1.30;;
2720;SDS011;1368;49.484;11.112;2024-03-29T09:42:29;3.00;;;1.50;;
2720;SDS011;1368;49.484;11.112;2024-03-29T09:44:58;4.60;;;2.40;;
2720;SDS011;1368;49.484;11.112;2024-03-29T09:47:26;8.60;;;1.53;;
2720;SDS011;1368;49.484;11.112;2024-03-29T09:49:52;3.30;;;1.90;;
2720;SDS011;1368;49.484;11.112;2024-03-29T09:52:20;2.47;;;1.30;;
2720;SDS011;1368;49.484;11.112;2024-03-29T09:54:45;2.57;;;1.43;;
2720;SDS011;1368;49.484;11.112;2024-03-29T09:57:11;4.33;;;1.40;;
2720;SDS011;1368;49.484;11.112;2024-03-29T09:59:42;2.10;;;1.27;;
2720;SDS011;1368;49.484;11.112;2024-03-29T10:02:17;2.47;;;1.23;;
2720;SDS011;1368;49.484;11.112;2024-03-29T10:04:45;2.90;;;1.23;;
2720;SDS011;1368;49.484;11.112;2024-03-29T10:07:14;3.53;;;1.67;;
2720;SDS011;1368;49.484;11.112;2024-03-29T10:09:40;3.70;;;1.93;;
2720;SDS011;1368;49.484;11.112;2024-03-29T10:12:07;3.87;;;2.70;;
2720;SDS011;1368;49.484;11.112;2024-03-29T10:14:42;3.70;;;1.90;;
2720;SDS011;1368;49.484;11.112;2024-03-29T10:17:14;3.47;;;1.90;;
2720;SDS011;1368;49.484;11.112;2024-03-29T10:19:42;3.17;;;1.97;;
2720;SDS011;1368;49.484;11.112;2024-03-29T10:22:07;3.40;;;2.07;;
2720;SDS011;1368;49.484;11.112;2024-03-29T10:24:33;4.27;;;2.23;;
2720;SDS011;1368;49.484;11.112;2024-03-29T10:26:59;3.30;;;1.63;;
2720;SDS011;1368;49.484;11.112;2024-03-29T10:29:28;4.50;;;2.10;;
2720;SDS011;1368;49.484;11.112;2024-03-29T10:31:55;3.97;;;1.90;;
2720;SDS011;1368;49.484;11.112;2024-03-29T10:34:21;9.17;;;4.63;;
2720;SDS011;1368;49.484;11.112;2024-03-29T10:36:48;6.43;;;2.77;;
2720;SDS011;1368;49.484;11.112;2024-03-29T10:39:15;3.23;;;2.20;;
2720;SDS011;1368;49.484;11.112;2024-03-29T10:41:42;3.40;;;2.20;;
2720;SDS011;1368;49.484;11.112;2024-03-29T10:44:11;4.10;;;1.97;;
2720;SDS011;1368;49.484;11.112;2024-03-29T10:46:38;4.27;;;1.50;;
2720;SDS011;1368;49.484;11.112;2024-03-29T10:49:05;3.03;;;1.90;;
2720;SDS011;1368;49.484;11.112;2024-03-29T10:51:35;3.27;;;1.70;;
2720;SDS011;1368;49.484;11.112;2024-03-29T10:54:06;2.63;;;1.67;;
2720;SDS011;1368;49.484;11.112;2024-03-29T10:56:34;2.57;;;1.33;;
2720;SDS011;1368;49.484;11.112;2024-03-29T10:59:25;2.10;;;1.10;;
2720;SDS011;1368;49.484;11.112;2024-03-29T11:01:52;2.10;;;1.10;;
2720;SDS011;1368;49.484;11.112;2024-03-29T11:04:25;3.37;;;1.40;;
2720;SDS011;1368;49.484;11.112;2024-03-29T11:06:57;4.10;;;1.77;;
2720;SDS011;1368;49.484;11.112;2024-03-29T11:09:27;4.93;;;1.60;;
2720;SDS011;1368;49.484;11.112;2024-03-29T11:11:55;3.70;;;1.90;;
2720;SDS011;1368;49.484;11.112;2024-03-29T11:14:31;5.67;;;1.87;;
2720;SDS011;1368;49.484;11.112;2024-03-29T11:17:09;5.93;;;1.77;;
2720;SDS011;1368;49.484;11.112;2024-03-29T11:19:37;3.77;;;1.67;;
2720;SDS011;1368;49.484;11.112;2024-03-29T11:22:03;2.70;;;1.60;;
2720;SDS011;1368;49.484;11.112;2024-03-29T11:24:29;4.03;;;2.00;;
2720;SDS011;1368;49.484;11.112;2024-03-29T11:26:57;2.43;;;1.47;;
2720;SDS011;1368;49.484;11.112;2024-03-29T11:29:22;4.43;;;1.47;;
2720;SDS011;1368;49.484;11.112;2024-03-29T11:31:58;3.00;;;1.20;;
2720;SDS011;1368;49.484;11.112;2024-03-29T11:34:24;5.30;;;1.50;;
2720;SDS011;1368;49.484;11.112;2024-03-29T11:36:50;5.33;;;1.83;;
2720;SDS011;1368;49.484;11.112;2024-03-29T11:39:21;4.90;;;1.50;;
2720;SDS011;1368;49.484;11.112;2024-03-29T11:41:48;3.10;;;1.70;;
2720;SDS011;1368;49.484;11.112;2024-03-29T11:44:15;3.90;;;1.93;;
2720;SDS011;1368;49.484;11.112;2024-03-29T11:46:41;4.00;;;1.90;;
2720;SDS011;1368;49.484;11.112;2024-03-29T11:49:07;4.17;;;1.90;;
2720;SDS011;1368;49.484;11.112;2024-03-29T11:51:33;6.20;;;2.43;;
2720;SDS011;1368;49.484;11.112;2024-03-29T11:53:59;4.30;;;1.80;;
2720;SDS011;1368;49.484;11.112;2024-03-29T11:56:25;3.67;;;2.07;;
2720;SDS011;1368;49.484;11.112;2024-03-29T11:58:50;3.03;;;1.90;;
2720;SDS011;1368;49.484;11.112;2024-03-29T12:01:16;5.30;;;2.50;;
2720;SDS011;1368;49.484;11.112;2024-03-29T12:03:43;6.77;;;2.90;;
2720;SDS011;1368;49.484;11.112;2024-03-29T12:06:09;6.60;;;2.70;;
2720;SDS011;1368;49.484;11.112;2024-03-29T12:08:37;7.07;;;3.33;;
2720;SDS011;1368;49.484;11.112;2024-03-29T12:11:03;4.70;;;3.20;;
2720;SDS011;1368;49.484;11.112;2024-03-29T12:13:29;4.33;;;2.60;;
2720;SDS011;1368;49.484;11.112;2024-03-29T12:15:56;4.17;;;2.80;;
2720;SDS011;1368;49.484;11.112;2024-03-29T12:18:22;6.87;;;2.73;;
2720;SDS011;1368;49.484;11.112;2024-03-29T12:20:49;4.63;;;2.60;;
2720;SDS011;1368;49.484;11.112;2024-03-29T12:23:16;4.47;;;2.50;;
2720;SDS011;1368;49.484;11.112;2024-03-29T12:25:43;10.40;;;3.03;;
2720;SDS011;1368;49.484;11.112;2024-03-29T12:28:10;5.40;;;2.93;;
2720;SDS011;1368;49.484;11.112;2024-03-29T12:30:37;5.07;;;2.83;;
2720;SDS011;1368;49.484;11.112;2024-03-29T12:33:07;5.43;;;3.00;;
2720;SDS011;1368;49.484;11.112;2024-03-29T12:35:36;4.27;;;2.50;;
2720;SDS011;1368;49.484;11.112;2024-03-29T12:38:03;8.77;;;3.93;;
2720;SDS011;1368;49.484;11.112;2024-03-29T12:40:31;4.37;;;2.77;;
2720;SDS011;1368;49.484;11.112;2024-03-29T12:43:02;3.27;;;1.70;;
2720;SDS011;1368;49.484;11.112;2024-03-29T12:45:33;5.90;;;1.80;;
2720;SDS011;1368;49.484;11.112;2024-03-29T12:48:08;5.67;;;2.00;;
2720;SDS011;1368;49.484;11.112;2024-03-29T12:50:39;4.57;;;2.77;;
2720;SDS011;1368;49.484;11.112;2024-03-29T12:53:10;6.77;;;3.60;;
2720;SDS011;1368;49.484;11.112;2024-03-29T12:55:37;7.13;;;2.67;;
2720;SDS011;1368;49.484;11.112;2024-03-29T12:58:10;2.60;;;1.40;;
2720;SDS011;1368;49.484;11.112;2024-03-29T13:00:40;2.20;;;1.23;;
2720;SDS011;1368;49.484;11.112;2024-03-29T13:03:06;4.20;;;1.70;;
2720;SDS011;1368;49.484;11.112;2024-03-29T13:05:32;4.90;;;2.30;;
2720;SDS011;1368;49.484;11.112;2024-03-29T13:08:03;3.60;;;1.70;;
2720;SDS011;1368;49.484;11.112;2024-03-29T13:10:30;5.30;;;2.00;;
2720;SDS011;1368;49.484;11.112;2024-03-29T13:12:56;4.20;;;2.00;;
2720;SDS011;1368;49.484;11.112;2024-03-29T13:15:22;3.10;;;1.40;;
2720;SDS011;1368;49.484;11.112;2024-03-29T13:17:50;5.70;;;3.30;;
2720;SDS011;1368;49.484;11.112;2024-03-29T13:20:16;3.20;;;1.70;;
2720;SDS011;1368;49.484;11.112;2024-03-29T13:22:42;3.23;;;1.37;;
2720;SDS011;1368;49.484;11.112;2024-03-29T13:25:10;3.77;;;1.80;;
2720;SDS011;1368;49.484;11.112;2024-03-29T13:27:37;3.27;;;1.83;;
2720;SDS011;1368;49.484;11.112;2024-03-29T13:30:07;3.30;;;1.70;;
2720;SDS011;1368;49.484;11.112;2024-03-29T13:32:34;2.60;;;1.70;;
2720;SDS011;1368;49.484;11.112;2024-03-29T13:35:00;2.47;;;1.20;;
2720;SDS011;1368;49.484;11.112;2024-03-29T13:37:26;2.67;;;1.17;;
2720;SDS011;1368;49.484;11.112;2024-03-29T13:39:53;2.50;;;1.17;;
2720;SDS011;1368;49.484;11.112;2024-03-29T13:42:20;5.17;;;1.60;;
2720;SDS011;1368;49.484;11.112;2024-03-29T13:44:46;3.03;;;1.07;;
2720;SDS011;1368;49.484;11.112;2024-03-29T13:47:14;2.50;;;1.03;;
2720;SDS011;1368;49.484;11.112;2024-03-29T13:49:41;2.63;;;1.30;;
2720;SDS011;1368;49.484;11.112;2024-03-29T13:52:09;2.60;;;1.30;;
2720;SDS011;1368;49.484;11.112;2024-03-29T13:54:35;2.53;;;1.27;;
2720;SDS011;1368;49.484;11.112;2024-03-29T13:57:01;2.33;;;0.93;;
2720;SDS011;1368;49.484;11.112;2024-03-29T13:59:29;5.60;;;1.80;;
2720;SDS011;1368;49.484;11.112;2024-03-29T14:01:55;3.43;;;1.10;;
2720;SDS011;1368;49.484;11.112;2024-03-29T14:04:21;3.83;;;1.00;;
2720;SDS011;1368;49.484;11.112;2024-03-29T14:06:47;2.80;;;1.30;;
2720;SDS011;1368;49.484;11.112;2024-03-29T14:09:13;1.90;;;0.90;;
2720;SDS011;1368;49.484;11.112;2024-03-29T14:11:38;2.80;;;1.10;;
2720;SDS011;1368;49.484;11.112;2024-03-29T14:14:04;1.87;;;0.70;;
2720;SDS011;1368;49.484;11.112;2024-03-29T14:16:32;2.50;;;1.10;;
2720;SDS011;1368;49.484;11.112;2024-03-29T14:18:58;1.67;;;0.73;;
2720;SDS011;1368;49.484;11.112;2024-03-29T14:21:24;2.10;;;1.07;;
2720;SDS011;1368;49.484;11.112;2024-03-29T14:23:49;1.60;;;0.80;;
2720;SDS011;1368;49.484;11.112;2024-03-29T14:26:15;3.57;;;0.83;;
2720;SDS011;1368;49.484;11.112;2024-03-29T14:28:40;2.20;;;1.00;;
2720;SDS011;1368;49.484;11.112;2024-03-29T14:31:06;2.30;;;0.90;;
2720;SDS011;1368;49.484;11.112;2024-03-29T14:33:33;1.90;;;0.77;;
2720;SDS011;1368;49.484;11.112;2024-03-29T14:35:58;1.60;;;0.70;;
2720;SDS011;1368;49.484;11.112;2024-03-29T14:38:24;1.50;;;0.60;;
2720;SDS011;1368;49.484;11.112;2024-03-29T14:40:50;3.20;;;0.80;;
2720;SDS011;1368;49.484;11.112;2024-03-29T14:43:15;2.90;;;1.20;;
2720;SDS011;1368;49.484;11.112;2024-03-29T14:45:42;1.97;;;0.83;;
2720;SDS011;1368;49.484;11.112;2024-03-29T14:48:07;1.80;;;0.67;;
2720;SDS011;1368;49.484;11.112;2024-03-29T14:50:33;2.17;;;0.80;;
2720;SDS011;1368;49.484;11.112;2024-03-29T14:52:59;3.00;;;1.00;;
2720;SDS011;1368;49.484;11.112;2024-03-29T14:55:24;3.40;;;1.13;;
2720;SDS011;1368;49.484;11.112;2024-03-29T14:57:51;2.00;;;1.10;;
2720;SDS011;1368;49.484;11.112;2024-03-29T15:00:17;3.03;;;1.10;;